Time;durP1;ratioP1;P1;durP2;ratioP2;P2;SDS_P1;SDS_P2;PMS_P1;PMS_P2;Temp;Humidity;BMP_temperature;BMP_pressure;BME280_temperature;BME280_humidity;BME280_pressure;Samples;Min_cycle;Max_cycle;Signal;HPM_P1;HPM_P2
2022/01/11 00:01:16;;;;;;;;;;;;;;;;;;5069668;28;19909;-61
2022/01/11 00:03:42;;;;;;;;;;;;;;;;;;5069626;28;19951;-61
2022/01/11 00:06:28;;;;;;;;;;;;;;;;;;5070120;28;19912;-60
2022/01/11 00:08:59;;;;;;;;;;;;;;;;;;5070019;28;20003;-57
2022/01/11 00:11:25;;;;;;;;;;;;;;;;;;5071183;28;20027;-62
2022/01/11 00:13:52;;;;;;;;;;;;;;;;;;5069549;28;20003;-61
2022/01/11 00:16:18;;;;;;;;;;;;;;;;;;5054045;28;19959;-61
2022/01/11 00:18:43;;;;;;;;;;;;;;;;;;5069870;28;20392;-63
2022/01/11 00:21:10;;;;;;;;;;;;;;;;;;5051773;28;19909;-60
2022/01/11 00:26:01;;;;;;;;;;;;;;;;;;5070435;28;20574;-60
2022/01/11 00:28:27;;;;;;;;;;;;;;;;;;5052139;28;19908;-62
2022/01/11 00:30:53;;;;;;;;;;;;;;;;;;5072002;28;19913;-60
2022/01/11 00:33:25;;;;;;;;;;;;;;;;;;5073725;28;20376;-61
2022/01/11 00:35:58;;;;;;;;;;;;;;;;;;5074121;28;19935;-61
2022/01/11 00:38:24;;;;;;;;;;;;;;;;;;5073841;28;19996;-61
2022/01/11 00:40:50;;;;;;;;;;;;;;;;;;5073599;28;19943;-61
2022/01/11 00:43:16;;;;;;;;;;;;;;;;;;5073559;28;20262;-61
2022/01/11 00:45:41;;;;;;;;;;;;;;;;;;5073325;28;19912;-61
2022/01/11 00:48:07;;;;;;;;;;;;;;;;;;5056637;28;19908;-58
2022/01/11 00:50:36;;;;;;;;;;;;;;;;;;5075526;28;19909;-55
2022/01/11 00:53:02;;;;;;;;;;;;;;;;;;5075280;28;19962;-60
2022/01/11 00:55:27;;;;;;;;;;;;;;;;;;5077350;22;20346;-65
2022/01/11 00:57:53;;;;;;;;;;;;;;;;;;5076300;28;19931;-65
2022/01/11 01:00:19;;;;;;;;;;;;;;;;;;5076336;28;19908;-66
2022/01/11 01:02:45;;;;;;;;;;;;;;;;;;5094404;28;20006;-65
2022/01/11 01:05:11;;;;;;;;;;;;;;;;;;5094592;28;19966;-65
2022/01/11 01:07:37;;;;;;;;;;;;;;;;;;5094455;28;19914;-66
2022/01/11 01:10:07;;;;;;;;;;;;;;;;;;5076229;28;19908;-65
2022/01/11 01:12:33;;;;;;;;;;;;;;;;;;5075880;28;19948;-64
2022/01/11 01:14:59;;;;;;;;;;;;;;;;;;5094901;28;19912;-66
2022/01/11 01:17:26;;;;;;;;;;;;;;;;;;5094223;28;19908;-65
2022/01/11 01:19:52;;;;;;;;;;;;;;;;;;5094131;28;19920;-65
2022/01/11 01:22:18;;;;;;;;;;;;;;;;;;5075852;28;20280;-64
2022/01/11 01:24:43;;;;;;;;;;;;;;;;;;5093910;28;19994;-66
2022/01/11 01:27:09;;;;;;;;;;;;;;;;;;5075838;28;19931;-64
2022/01/11 01:29:35;;;;;;;;;;;;;;;;;;5093877;28;19931;-66
2022/01/11 01:32:01;;;;;;;;;;;;;;;;;;5093568;28;19950;-66
2022/01/11 01:34:27;;;;;;;;;;;;;;;;;;5093757;28;19916;-66
2022/01/11 01:36:53;;;;;;;;;;;;;;;;;;5075552;28;19915;-65
2022/01/11 01:39:19;;;;;;;;;;;;;;;;;;5093517;28;19912;-66
2022/01/11 01:41:45;;;;;;;;;;;;;;;;;;5092912;28;19936;-66
2022/01/11 01:44:12;;;;;;;;;;;;;;;;;;5093445;28;19908;-65
2022/01/11 01:46:38;;;;;;;;;;;;;;;;;;5075180;28;20009;-66
2022/01/11 01:49:04;;;;;;;;;;;;;;;;;;5075423;28;19964;-66
2022/01/11 01:51:30;;;;;;;;;;;;;;;;;;5075116;28;19916;-65
2022/01/11 01:53:56;;;;;;;;;;;;;;;;;;5075191;28;20010;-64
2022/01/11 01:56:22;;;;;;;;;;;;;;;;;;5075193;28;20003;-65
2022/01/11 01:58:48;;;;;;;;;;;;;;;;;;5093276;28;19934;-66
2022/01/11 02:01:14;;;;;;;;;;;;;;;;;;5075180;28;19916;-65
2022/01/11 02:03:40;;;;;;;;;;;;;;;;;;5093015;28;19915;-66
2022/01/11 02:06:06;;;;;;;;;;;;;;;;;;5092784;28;19908;-65
2022/01/11 02:08:32;;;;;;;;;;;;;;;;;;5093094;28;20049;-65
2022/01/11 02:10:58;;;;;;;;;;;;;;;;;;5075242;28;19908;-65
2022/01/11 02:13:23;;;;;;;;;;;;;;;;;;5092950;28;19912;-66
2022/01/11 02:15:50;;;;;;;;;;;;;;;;;;5074977;28;19954;-64
2022/01/11 02:18:18;;;;;;;;;;;;;;;;;;5093249;28;19926;-64
2022/01/11 02:20:44;;;;;;;;;;;;;;;;;;5075046;28;20303;-63
2022/01/11 02:23:10;;;;;;;;;;;;;;;;;;5074717;28;19915;-64
2022/01/11 02:25:36;;;;;;;;;;;;;;;;;;5093431;28;19908;-62
2022/01/11 02:28:02;;;;;;;;;;;;;;;;;;5093307;28;19999;-64
2022/01/11 02:30:32;;;;;;;;;;;;;;;;;;5074856;28;20337;-64
2022/01/11 02:32:58;;;;;;;;;;;;;;;;;;5092577;28;20308;-65
2022/01/11 02:35:24;;;;;;;;;;;;;;;;;;5074727;28;19909;-65
2022/01/11 02:37:49;;;;;;;;;;;;;;;;;;5074772;28;20073;-64
2022/01/11 02:40:15;;;;;;;;;;;;;;;;;;5092726;28;19953;-64
2022/01/11 02:42:41;;;;;;;;;;;;;;;;;;5074170;28;19912;-65
2022/01/11 02:45:07;;;;;;;;;;;;;;;;;;5092526;28;19908;-64
2022/01/11 02:47:33;;;;;;;;;;;;;;;;;;5074357;28;19908;-65
2022/01/11 02:49:59;;;;;;;;;;;;;;;;;;5092801;28;19908;-64
2022/01/11 02:52:25;;;;;;;;;;;;;;;;;;5091670;28;19951;-65
2022/01/11 02:54:51;;;;;;;;;;;;;;;;;;5092416;28;19912;-64
2022/01/11 02:57:16;;;;;;;;;;;;;;;;;;5092380;28;19908;-65
2022/01/11 02:59:42;;;;;;;;;;;;;;;;;;5073914;28;19951;-66
2022/01/11 03:02:08;;;;;;;;;;;;;;;;;;5091959;28;19916;-65
2022/01/11 03:04:34;;;;;;;;;;;;;;;;;;5074132;28;19958;-65
2022/01/11 03:07:00;;;;;;;;;;;;;;;;;;5073896;28;20364;-64
2022/01/11 03:09:30;;;;;;;;;;;;;;;;;;5073849;28;19990;-65
2022/01/11 03:11:56;;;;;;;;;;;;;;;;;;5091769;28;19908;-63
2022/01/11 03:14:22;;;;;;;;;;;;;;;;;;5092041;28;19953;-66
2022/01/11 03:16:48;;;;;;;;;;;;;;;;;;5073873;28;19908;-65
2022/01/11 03:19:14;;;;;;;;;;;;;;;;;;5092105;28;19912;-64
2022/01/11 03:21:40;;;;;;;;;;;;;;;;;;5073738;28;19931;-64
2022/01/11 03:24:06;;;;;;;;;;;;;;;;;;5091788;28;20003;-64
2022/01/11 03:26:32;;;;;;;;;;;;;;;;;;5091897;28;19912;-65
2022/01/11 03:28:57;;;;;;;;;;;;;;;;;;5091966;28;19908;-64
2022/01/11 03:31:24;;;;;;;;;;;;;;;;;;5073512;28;19954;-64
2022/01/11 03:33:50;;;;;;;;;;;;;;;;;;5073080;28;19908;-65
2022/01/11 03:36:15;;;;;;;;;;;;;;;;;;5073322;28;19931;-64
2022/01/11 03:38:41;;;;;;;;;;;;;;;;;;5073283;28;20039;-65
2022/01/11 03:41:07;;;;;;;;;;;;;;;;;;5091446;28;19916;-64
2022/01/11 03:43:33;;;;;;;;;;;;;;;;;;5072901;28;19947;-65
2022/01/11 03:45:59;;;;;;;;;;;;;;;;;;5073088;28;19912;-65
2022/01/11 03:48:25;;;;;;;;;;;;;;;;;;5091264;28;19915;-64
2022/01/11 03:50:55;;;;;;;;;;;;;;;;;;5072939;28;20005;-65
2022/01/11 03:53:25;;;;;;;;;;;;;;;;;;5091067;28;20368;-64
2022/01/11 03:58:16;;;;;;;;;;;;;;;;;;5091542;28;20237;-65
2022/01/11 04:03:18;;;;;;;;;;;;;;;;;;5581441;22;19924;-61
2022/01/11 04:05:45;;;;;;;;;;;;;;;;;;5054456;28;19923;-61
2022/01/11 04:08:12;;;;;;;;;;;;;;;;;;5072633;28;19991;-60
2022/01/11 04:10:37;;;;;;;;;;;;;;;;;;5072505;28;19909;-59
2022/01/11 04:13:03;;;;;;;;;;;;;;;;;;5054208;28;19915;-58
2022/01/11 04:15:29;;;;;;;;;;;;;;;;;;5072550;28;19905;-58
2022/01/11 04:17:55;;;;;;;;;;;;;;;;;;5093725;22;19925;-62
2022/01/11 04:20:22;;;;;;;;;;;;;;;;;;5072900;28;19908;-61
2022/01/11 04:22:48;;;;;;;;;;;;;;;;;;5072716;28;19909;-62
2022/01/11 04:25:14;;;;;;;;;;;;;;;;;;5072968;28;19908;-59
2022/01/11 04:27:39;;;;;;;;;;;;;;;;;;5072734;28;19967;-60
2022/01/11 04:30:05;;;;;;;;;;;;;;;;;;5072895;28;20433;-60
2022/01/11 04:32:31;;;;;;;;;;;;;;;;;;5054853;28;19909;-60
2022/01/11 04:34:57;;;;;;;;;;;;;;;;;;5072641;28;19969;-59
2022/01/11 04:37:23;;;;;;;;;;;;;;;;;;5072452;28;19913;-57
2022/01/11 04:45:11;;;;;;;;;;;;;;;;;;5071757;28;20005;-57
2022/01/11 04:47:37;;;;;;;;;;;;;;;;;;5054097;28;19908;-57
2022/01/11 04:50:03;;;;;;;;;;;;;;;;;;5072292;28;19912;-55
2022/01/11 04:52:29;;;;;;;;;;;;;;;;;;5054143;28;20004;-58
2022/01/11 04:54:55;;;;;;;;;;;;;;;;;;5092957;22;19909;-63
2022/01/11 04:57:21;;;;;;;;;;;;;;;;;;5069410;28;20399;-63
2022/01/11 04:59:46;;;;;;;;;;;;;;;;;;5070418;28;19923;-64
2022/01/11 05:02:12;;;;;;;;;;;;;;;;;;5070113;28;20312;-64
2022/01/11 05:04:38;;;;;;;;;;;;;;;;;;5070420;28;19908;-65
2022/01/11 05:07:04;;;;;;;;;;;;;;;;;;5070194;28;19908;-66
2022/01/11 05:09:30;;;;;;;;;;;;;;;;;;5070489;28;20252;-65
2022/01/11 05:11:56;;;;;;;;;;;;;;;;;;5052419;28;19923;-65
2022/01/11 05:14:22;;;;;;;;;;;;;;;;;;5070323;28;20373;-65
2022/01/11 05:16:48;;;;;;;;;;;;;;;;;;5054432;28;19909;-64
2022/01/11 05:19:14;;;;;;;;;;;;;;;;;;5074393;28;19928;-65
2022/01/11 05:21:40;;;;;;;;;;;;;;;;;;5074136;28;19908;-64
2022/01/11 05:24:06;;;;;;;;;;;;;;;;;;5073630;28;19915;-64
2022/01/11 05:26:31;;;;;;;;;;;;;;;;;;5074004;28;20391;-64
2022/01/11 05:28:58;;;;;;;;;;;;;;;;;;5073632;28;19927;-64
2022/01/11 05:31:24;;;;;;;;;;;;;;;;;;5055808;28;19908;-64
2022/01/11 05:33:50;;;;;;;;;;;;;;;;;;5073484;28;19999;-63
2022/01/11 05:36:16;;;;;;;;;;;;;;;;;;5073462;28;19909;-64
2022/01/11 05:38:42;;;;;;;;;;;;;;;;;;5073568;28;19921;-64
2022/01/11 05:41:08;;;;;;;;;;;;;;;;;;5055466;28;19909;-65
2022/01/11 05:43:35;;;;;;;;;;;;;;;;;;5073045;28;19908;-64
2022/01/11 05:46:01;;;;;;;;;;;;;;;;;;5072998;28;19938;-64
2022/01/11 05:48:27;;;;;;;;;;;;;;;;;;5073591;28;20363;-64
2022/01/11 05:50:52;;;;;;;;;;;;;;;;;;5073500;28;19943;-64
2022/01/11 05:53:18;;;;;;;;;;;;;;;;;;5073050;28;20046;-65
2022/01/11 05:55:44;;;;;;;;;;;;;;;;;;5072599;28;20287;-64
2022/01/11 05:58:10;;;;;;;;;;;;;;;;;;5079597;28;19917;-64
2022/01/11 06:00:36;;;;;;;;;;;;;;;;;;5072947;28;19908;-64
2022/01/11 06:03:03;;;;;;;;;;;;;;;;;;5072834;28;19916;-64
2022/01/11 06:05:31;;;;;;;;;;;;;;;;;;5072684;28;19939;-64
2022/01/11 06:08:00;;;;;;;;;;;;;;;;;;5072768;28;19954;-64
2022/01/11 06:10:26;;;;;;;;;;;;;;;;;;5072614;28;19908;-64
2022/01/11 06:12:52;;;;;;;;;;;;;;;;;;5072356;28;20004;-64
2022/01/11 06:15:18;;;;;;;;;;;;;;;;;;5072581;28;19941;-64
2022/01/11 06:17:44;;;;;;;;;;;;;;;;;;5072548;28;20004;-65
2022/01/11 06:20:10;;;;;;;;;;;;;;;;;;5054024;28;19909;-64
2022/01/11 06:22:37;;;;;;;;;;;;;;;;;;5053867;28;19916;-64
2022/01/11 06:25:03;;;;;;;;;;;;;;;;;;5054206;28;19962;-64
2022/01/11 06:27:29;;;;;;;;;;;;;;;;;;5071516;28;19992;-64
2022/01/11 06:29:55;;;;;;;;;;;;;;;;;;5071989;28;20324;-64
2022/01/11 06:32:21;;;;;;;;;;;;;;;;;;5071774;28;19916;-64
2022/01/11 06:34:47;;;;;;;;;;;;;;;;;;5054117;28;19951;-64
2022/01/11 06:37:12;;;;;;;;;;;;;;;;;;5071180;28;19908;-62
2022/01/11 06:39:39;;;;;;;;;;;;;;;;;;5048132;28;20070;-64
2022/01/11 06:42:05;;;;;;;;;;;;;;;;;;5080581;28;19909;-64
2022/01/11 06:44:31;;;;;;;;;;;;;;;;;;5072771;28;20197;-64
2022/01/11 06:46:56;;;;;;;;;;;;;;;;;;5062348;28;19909;-65
2022/01/11 06:49:22;;;;;;;;;;;;;;;;;;5052931;28;19909;-63
2022/01/11 06:51:48;;;;;;;;;;;;;;;;;;5052368;28;19967;-64
2022/01/11 06:54:14;;;;;;;;;;;;;;;;;;5052255;28;20042;-65
2022/01/11 06:56:40;;;;;;;;;;;;;;;;;;5053872;28;19927;-64
2022/01/11 06:59:06;;;;;;;;;;;;;;;;;;5071657;28;19916;-64
2022/01/11 07:01:32;;;;;;;;;;;;;;;;;;5071587;28;20280;-64
2022/01/11 07:03:58;;;;;;;;;;;;;;;;;;5070904;28;20295;-62
2022/01/11 07:06:24;;;;;;;;;;;;;;;;;;5071311;28;19909;-63
2022/01/11 07:08:50;;;;;;;;;;;;;;;;;;5071288;28;19954;-63
2022/01/11 07:11:16;;;;;;;;;;;;;;;;;;5054485;28;19909;-65
2022/01/11 07:13:41;;;;;;;;;;;;;;;;;;5033596;28;19909;-65
2022/01/11 07:16:07;;;;;;;;;;;;;;;;;;5051393;28;20360;-65
2022/01/11 07:18:33;;;;;;;;;;;;;;;;;;5033344;28;19913;-64
2022/01/11 07:20:59;;;;;;;;;;;;;;;;;;5050929;28;19936;-65
2022/01/11 07:23:25;;;;;;;;;;;;;;;;;;5050684;28;19968;-64
2022/01/11 07:25:51;;;;;;;;;;;;;;;;;;5051792;28;19917;-65
2022/01/11 07:28:17;;;;;;;;;;;;;;;;;;5050962;28;20317;-65
2022/01/11 07:30:43;;;;;;;;;;;;;;;;;;5033319;28;19909;-65
2022/01/11 07:33:09;;;;;;;;;;;;;;;;;;5050578;28;19912;-65
2022/01/11 07:35:35;;;;;;;;;;;;;;;;;;5050680;28;20296;-65
2022/01/11 07:38:01;;;;;;;;;;;;;;;;;;5033218;28;20039;-64
2022/01/11 07:40:27;;;;;;;;;;;;;;;;;;5050755;28;19909;-64
2022/01/11 07:42:53;;;;;;;;;;;;;;;;;;5050820;28;19909;-65
2022/01/11 07:45:19;;;;;;;;;;;;;;;;;;5033194;28;20000;-64
2022/01/11 07:47:45;;;;;;;;;;;;;;;;;;5051458;28;20019;-64
2022/01/11 07:50:11;;;;;;;;;;;;;;;;;;5032998;28;19909;-64
2022/01/11 07:52:39;;;;;;;;;;;;;;;;;;5050599;28;19909;-66
2022/01/11 07:55:05;;;;;;;;;;;;;;;;;;5050912;28;20295;-65
2022/01/11 07:57:31;;;;;;;;;;;;;;;;;;5051043;28;19928;-65
2022/01/11 07:59:57;;;;;;;;;;;;;;;;;;5050856;28;19967;-64
2022/01/11 08:02:23;;;;;;;;;;;;;;;;;;5050847;28;19913;-64
2022/01/11 08:04:49;;;;;;;;;;;;;;;;;;5032875;28;20364;-65
2022/01/11 08:07:15;;;;;;;;;;;;;;;;;;5051409;28;19909;-64
2022/01/11 08:09:41;;;;;;;;;;;;;;;;;;5034491;28;19913;-65
2022/01/11 08:12:06;;;;;;;;;;;;;;;;;;5052350;28;19909;-64
2022/01/11 08:14:32;;;;;;;;;;;;;;;;;;5051016;28;19916;-64
2022/01/11 08:16:58;;;;;;;;;;;;;;;;;;5051378;28;20354;-64
2022/01/11 08:19:27;;;;;;;;;;;;;;;;;;5050933;28;19913;-61
2022/01/11 08:21:53;;;;;;;;;;;;;;;;;;5050803;28;19909;-64
2022/01/11 08:24:22;;;;;;;;;;;;;;;;;;5050645;28;20006;-64
2022/01/11 08:26:48;;;;;;;;;;;;;;;;;;5050667;28;19909;-65
2022/01/11 08:29:14;;;;;;;;;;;;;;;;;;5032520;28;20301;-64
2022/01/11 08:31:40;;;;;;;;;;;;;;;;;;5050983;28;19913;-64
2022/01/11 08:34:11;;;;;;;;;;;;;;;;;;5032919;28;20012;-65
2022/01/11 08:36:37;;;;;;;;;;;;;;;;;;5033225;28;19909;-65
2022/01/11 08:39:03;;;;;;;;;;;;;;;;;;5051889;28;20015;-65
2022/01/11 08:41:29;;;;;;;;;;;;;;;;;;5052582;28;20334;-65
2022/01/11 08:43:58;;;;;;;;;;;;;;;;;;5036427;28;19909;-65
2022/01/11 08:46:23;;;;;;;;;;;;;;;;;;5055006;28;19909;-65
2022/01/11 08:48:49;;;;;;;;;;;;;;;;;;5037745;28;19916;-65
2022/01/11 08:51:15;;;;;;;;;;;;;;;;;;5056539;28;19943;-64
2022/01/11 08:53:41;;;;;;;;;;;;;;;;;;5057053;28;20360;-63
2022/01/11 08:56:07;;;;;;;;;;;8.00;99.90;;;;;;5056756;28;19923;-64
2022/01/11 08:58:33;;;;;;;;;;;-0.40;99.90;;;;;;5056138;28;20383;-65
2022/01/11 09:00:58;;;;;;;;;;;-0.50;99.90;;;;;;5055012;28;20010;-65
2022/01/11 09:03:23;;;;;;;;;;;-0.50;99.90;;;;;;5054598;28;19909;-64
2022/01/11 09:05:50;;;;;;;;;;;-0.40;99.90;;;;;;5054163;28;19915;-64
2022/01/11 09:08:16;;;;;;;;;;;-0.40;99.90;;;;;;5054351;28;19952;-66
2022/01/11 09:10:42;;;;;;;;;;;-0.40;99.90;;;;;;5036015;28;19917;-65
2022/01/11 09:13:08;;;;;;;;;;;-0.30;99.90;;;;;;5053405;28;19931;-64
2022/01/11 09:15:33;;;;;;;;;;;-0.30;99.90;;;;;;5053766;28;20050;-64
2022/01/11 09:17:59;;;;;;;;;;;-0.20;99.90;;;;;;5054115;28;19909;-64
2022/01/11 09:20:25;;;;;;;;;;;;;;;;;;5054190;28;20478;-65
2022/01/11 09:22:51;;;;;;;;;;;;;;;;;;5053913;28;19935;-63
2022/01/11 09:25:16;;;;;;;;;;;-0.10;99.90;;;;;;5053926;28;20384;-65
2022/01/11 09:27:42;;;;;;;;;;;0.00;99.90;;;;;;5053701;28;20388;-64
2022/01/11 09:30:08;;;;;;;;;;;;;;;;;;5053867;28;19916;-63
2022/01/11 09:32:34;;;;;;;;;;;;;;;;;;5053658;28;19908;-62
2022/01/11 09:35:00;;;;;;;;;;;;;;;;;;5053776;28;19957;-65
2022/01/11 09:37:29;;;;;;;;;;;;;;;;;;5053719;28;19970;-62
2022/01/11 09:39:55;;;;;;;;;;;;;;;;;;5053468;28;19993;-63
2022/01/11 09:42:21;;;;;;;;;;;;;;;;;;5053115;28;19917;-63
2022/01/11 09:44:47;;;;;;;;;;;0.00;99.90;;;;;;5053130;28;19915;-61
2022/01/11 09:47:13;;;;;;;;;;;0.40;99.90;;;;;;5052976;28;20384;-62
2022/01/11 09:49:39;;;;;;;;;;;;;;;;;;5053367;28;19995;-61
2022/01/11 09:52:08;;;;;;;;;;;;;;;;;;5052887;28;19958;-62
2022/01/11 09:54:34;;;;;;;;;;;;;;;;;;5052887;28;19999;-62
2022/01/11 09:57:00;;;;;;;;;;;;;;;;;;5034826;28;19963;-62
2022/01/11 09:59:26;;;;;;;;;;;;;;;;;;5053109;28;19952;-61
2022/01/11 10:01:52;;;;;;;;;;;;;;;;;;5052550;28;20283;-62
2022/01/11 10:04:18;;;;;;;;;;;;;;;;;;5052887;28;20000;-63
2022/01/11 10:06:44;;;;;;;;;;;;;;;;;;5052757;28;19909;-64
2022/01/11 10:09:10;;;;;;;;;;;;;;;;;;5052589;28;20327;-64
2022/01/11 10:11:37;;;;;;;;;;;0.40;99.90;;;;;;5052789;28;19912;-63
2022/01/11 10:14:17;;;;;;;;;;;1.00;99.90;;;;;;5052360;28;19909;-63
2022/01/11 10:16:43;;;;;;;;;;;;;;;;;;5052603;28;19913;-63
2022/01/11 10:19:09;;;;;;;;;;;;;;;;;;5052532;28;19920;-63
2022/01/11 10:21:35;;;;;;;;;;;;;;;;;;5052599;28;20277;-63
2022/01/11 10:24:01;;;;;;;;;;;;;;;;;;5052254;28;20070;-62
2022/01/11 10:26:27;;;;;;;;;;;;;;;;;;5052306;28;19909;-64
2022/01/11 10:28:55;;;;;;;;;;;;;;;;;;5052697;28;19932;-61
2022/01/11 10:31:21;;;;;;;;;;;;;;;;;;5034701;28;20339;-62
2022/01/11 10:33:47;;;;;;;;;;;;;;;;;;5052399;28;19951;-62
2022/01/11 10:36:13;;;;;;;;;;;;;;;;;;5052528;28;19969;-64
2022/01/11 10:38:39;;;;;;;;;;;;;;;;;;5052039;28;19913;-63
2022/01/11 10:41:05;;;;;;;;;;;;;;;;;;5052384;28;19956;-64
2022/01/11 10:43:34;;;;;;;;;;;;;;;;;;5051864;28;20372;-63
2022/01/11 10:46:00;;;;;;;;;;;;;;;;;;5051899;28;20000;-63
2022/01/11 10:48:27;;;;;;;;;;;;;;;;;;5034102;28;19949;-63
2022/01/11 10:50:54;;;;;;;;;;;;;;;;;;5051360;28;19916;-63
2022/01/11 10:53:20;;;;;;;;;;;;;;;;;;5050656;28;19908;-63
2022/01/11 10:55:45;;;;;;;;;;;;;;;;;;5073341;22;19924;-60
2022/01/11 10:58:11;;;;;;;;;;;;;;;;;;5092260;28;20006;-64
2022/01/11 11:00:37;;;;;;;;;;;;;;;;;;5093395;28;19908;-61
2022/01/11 11:03:03;;;;;;;;;;;;;;;;;;5090965;28;19908;-62
2022/01/11 11:05:30;;;;;;;;;;;;;;;;;;5087929;28;19907;-64
2022/01/11 11:07:56;;;;;;;;;;;;;;;;;;5095148;28;19916;-64
2022/01/11 11:10:22;;;;;;;;;;;;;;;;;;5093795;28;19915;-64
2022/01/11 11:12:48;;;;;;;;;;;;;;;;;;5091493;28;20364;-63
2022/01/11 11:15:14;;;;;;;;;;;;;;;;;;5093097;28;19909;-63
2022/01/11 11:17:40;;;;;;;;;;;;;;;;;;5093152;28;19908;-64
2022/01/11 11:20:05;;;;;;;;;;;;;;;;;;5094068;28;19912;-64
2022/01/11 11:22:31;;;;;;;;;;;;;;;;;;5093224;28;19916;-64
2022/01/11 11:24:57;;;;;;;;;;;;;;;;;;5093673;28;19908;-64
2022/01/11 11:27:24;;;;;;;;;;;;;;;;;;5093001;28;19909;-65
2022/01/11 11:29:50;;;;;;;;;;;;;;;;;;5093089;28;19908;-64
2022/01/11 11:32:17;;;;;;;;;;;;;;;;;;5093692;28;19953;-65
2022/01/11 11:34:44;;;;;;;;;;;;;;;;;;5091075;28;19908;-66
2022/01/11 11:37:10;;;;;;;;;;;;;;;;;;5092769;28;19951;-64
2022/01/11 11:39:36;;;;;;;;;;;;;;;;;;5082059;28;20016;-64
2022/01/11 11:42:02;;;;;;;;;;;;;;;;;;5072641;28;19938;-64
2022/01/11 11:44:28;;;;;;;;;;;;;;;;;;5072148;28;19909;-64
2022/01/11 11:46:54;;;;;;;;;;;;;;;;;;5072559;28;19915;-64
2022/01/11 11:49:20;;;;;;;;;;;;;;;;;;5072326;28;19994;-62
2022/01/11 11:51:46;;;;;;;;;;;;;;;;;;5072108;28;19912;-61
2022/01/11 11:54:16;;;;;;;;;;;1.00;99.90;;;;;;5070200;28;19916;-64
2022/01/11 11:56:42;;;;;;;;;;;;;;;;;;5070270;28;20306;-63
2022/01/11 11:59:09;;;;;;;;;;;;;;;;;;5070984;28;20064;-62
2022/01/11 12:01:45;;;;;;;;;;;8.30;99.90;;;;;;5070993;28;19999;-62
2022/01/11 12:04:10;;;;;;;;;;;9.20;99.90;;;;;;5071062;28;19927;-63
2022/01/11 12:06:36;;;;;;;;;;;9.10;99.90;;;;;;5071829;28;20327;-63
2022/01/11 12:09:06;;;;;;;;;;;9.80;99.90;;;;;;5070915;28;20355;-62
2022/01/11 12:11:36;;;;;;;;;;;9.70;99.80;;;;;;5072835;28;19959;-61
2022/01/11 12:14:02;;;;;;;;;;;9.50;98.70;;;;;;5072277;28;19915;-63
2022/01/11 12:16:34;;;;;;;;;;;9.60;99.60;;;;;;5072164;28;20270;-63
2022/01/11 12:19:02;;;;;;;;;;;9.80;98.20;;;;;;5076899;28;19912;-61
2022/01/11 12:21:28;;;;;;;;;;;9.90;98.20;;;;;;5071849;28;19916;-62
2022/01/11 12:23:55;;;;;;;;;;;9.60;98.40;;;;;;5071732;28;19909;-60
2022/01/11 12:26:22;;;;;;;;;;;9.80;98.40;;;;;;5073265;28;19909;-60
2022/01/11 12:29:02;;;;;;;;;;;9.80;98.10;;;;;;5076621;28;19962;-64
2022/01/11 12:31:29;;;;;;;;;;;9.70;97.90;;;;;;5075585;28;19909;-63
2022/01/11 12:33:55;;;;;;;;;;;10.70;97.50;;;;;;5076190;28;19909;-64
2022/01/11 12:36:21;;;;;;;;;;;10.40;97.40;;;;;;5075800;28;20050;-62
2022/01/11 12:39:05;;;;;;;;;;;10.20;96.70;;;;;;5074240;28;20377;-61
2022/01/11 12:41:37;;;;;;;;;;;9.90;97.00;;;;;;5075506;28;19908;-60
2022/01/11 12:44:23;;;;;;;;;;;10.00;97.00;;;;;;5074469;28;19908;-63
2022/01/11 12:46:57;;;;;;;;;;;10.20;95.70;;;;;;5075880;28;19909;-62
2022/01/11 12:49:23;;;;;;;;;;;10.00;96.30;;;;;;5075620;28;19995;-63
2022/01/11 12:51:57;;;;;;;;;;;10.30;96.00;;;;;;5074532;28;19908;-65
2022/01/11 12:54:48;;;;;;;;;;;10.70;95.70;;;;;;5081893;28;19908;-63
2022/01/11 12:57:15;;;;;;;;;;;10.70;94.40;;;;;;5075419;28;20294;-62
2022/01/11 12:59:48;;;;;;;;;;;10.50;95.00;;;;;;5075402;28;20387;-63
2022/01/11 13:02:16;;;;;;;;;;;10.60;94.70;;;;;;5075270;28;19909;-65
2022/01/11 13:04:44;;;;;;;;;;;10.40;95.00;;;;;;5076230;28;20397;-64
2022/01/11 13:07:10;;;;;;;;;;;;;;;;;;5076059;28;19909;-64
2022/01/11 13:09:36;;;;;;;;;;;;;;;;;;5075643;28;19909;-62
2022/01/11 13:12:02;;;;;;;;;;;;;;;;;;5076108;28;20257;-62
2022/01/11 13:14:37;;;;;;;;;;;;;;;;;;5075113;28;19927;-63
2022/01/11 13:17:03;;;;;;;;;;;;;;;;;;5073376;28;20429;-64
2022/01/11 13:19:29;;;;;;;;;;;;;;;;;;5075405;28;19912;-64
2022/01/11 13:21:55;;;;;;;;;;;;;;;;;;5073596;28;19935;-63
2022/01/11 13:26:47;;;;;;;;;;;;;;;;;;5074957;28;20338;-62
2022/01/11 13:29:15;;;;;;;;;;;10.10;94.80;;;;;;5075144;28;20437;-63
2022/01/11 13:31:41;;;;;;;;;;;9.40;98.20;;;;;;5074507;28;20295;-63
2022/01/11 13:34:07;;;;;;;;;;;9.90;97.10;;;;;;5074809;28;19909;-62
2022/01/11 13:36:35;;;;;;;;;;;9.90;96.50;;;;;;5074235;28;20342;-61
2022/01/11 13:39:11;;;;;;;;;;;9.80;96.40;;;;;;5073622;28;20399;-62
2022/01/11 13:41:38;;;;;;;;;;;10.00;96.30;;;;;;5073351;28;19960;-62
2022/01/11 13:44:07;;;;;;;;;;;10.20;95.90;;;;;;5072992;28;19908;-62
2022/01/11 13:46:42;;;;;;;;;;;9.90;96.20;;;;;;5074583;28;19909;-64
2022/01/11 13:49:19;;;;;;;;;;;9.60;96.60;;;;;;5074746;28;19915;-64
2022/01/11 13:51:45;;;;;;;;;;;;;;;;;;5074321;28;19923;-64
2022/01/11 13:54:12;;;;;;;;;;;9.30;96.70;;;;;;5074180;28;19923;-63
2022/01/11 13:56:40;;;;;;;;;;;;;;;;;;5074304;28;19985;-62
2022/01/11 13:59:06;;;;;;;;;;;;;;;;;;5074524;28;19996;-64
2022/01/11 14:01:32;;;;;;;;;;;;;;;;;;5074145;28;19924;-60
2022/01/11 14:03:58;;;;;;;;;;;;;;;;;;5074184;28;19940;-61
2022/01/11 14:06:24;;;;;;;;;;;;;;;;;;5074233;28;20003;-63
2022/01/11 14:08:53;;;;;;;;;;;;;;;;;;5074622;28;19908;-62
2022/01/11 14:11:24;;;;;;;;;;;8.90;98.00;;;;;;5072696;28;20287;-62
2022/01/11 14:13:53;;;;;;;;;;;10.60;96.10;;;;;;5073808;28;20409;-62
2022/01/11 14:16:20;;;;;;;;;;;;;;;;;;5073922;28;19908;-64
2022/01/11 14:18:46;;;;;;;;;;;;;;;;;;5074002;28;19973;-64
2022/01/11 14:21:12;;;;;;;;;;;;;;;;;;5073767;28;19912;-64
2022/01/11 14:23:38;;;;;;;;;;;;;;;;;;4721879;28;10000208;-63
2022/01/11 14:26:05;;;;;;;;;;;11.00;95.30;;;;;;5090032;28;20273;-63
2022/01/11 14:28:33;;;;;;;;;;;8.50;98.00;;;;;;5090164;28;19995;-63
2022/01/11 14:30:59;;;;;;;;;;;;;;;;;;5089408;28;20012;-62
2022/01/11 14:33:28;;;;;;;;;;;;;;;;;;5074937;28;19951;-64
2022/01/11 14:35:53;;;;;;;;;;;;;;;;;;5071043;28;19912;-63
2022/01/11 14:38:19;;;;;;;;;;;;;;;;;;5070144;28;19920;-62
2022/01/11 14:40:45;;;;;;;;;;;;;;;;;;5086369;28;20344;-64
2022/01/11 14:43:11;;;;;;;;;;;;;;;;;;5072474;28;20011;-62
2022/01/11 14:45:37;;;;;;;;;;;;;;;;;;5072926;28;20306;-62
2022/01/11 14:48:03;;;;;;;;;;;;;;;;;;4726562;28;9999913;-64
2022/01/11 14:50:29;;;;;;;;;;;;;;;;;;5090330;28;19908;-64
2022/01/11 14:52:55;;;;;;;;;;;;;;;;;;5088897;28;19919;-62
2022/01/11 14:55:20;;;;;;;;;;;;;;;;;;5090438;28;19999;-64
2022/01/11 14:57:46;;;;;;;;;;;;;;;;;;5085663;28;19912;-63
2022/01/11 15:00:12;;;;;;;;;;;;;;;;;;5069885;28;19928;-64
2022/01/11 15:02:38;;;;;;;;;;;;;;;;;;5068524;28;20261;-63
2022/01/11 15:05:06;;;;;;;;;;;;;;;;;;5070368;28;19912;-64
2022/01/11 15:07:31;;;;;;;;;;;;;;;;;;5068737;28;20445;-61
2022/01/11 15:09:57;;;;;;;;;;;;;;;;;;5070772;28;19908;-64
2022/01/11 15:12:23;;;;;;;;;;;;;;;;;;5068157;28;19909;-64
2022/01/11 15:14:53;;;;;;;;;;;;;;;;;;5070054;28;19915;-63
2022/01/11 15:17:19;;;;;;;;;;;;;;;;;;5068793;28;20189;-64
2022/01/11 15:19:45;;;;;;;;;;;;;;;;;;5069112;28;19917;-62
2022/01/11 15:22:11;;;;;;;;;;;;;;;;;;5069571;28;20319;-63
2022/01/11 15:24:38;;;;;;;;;;;;;;;;;;5069132;28;20236;-60
2022/01/11 15:27:03;;;;;;;;;;;;;;;;;;5068208;28;20183;-64
2022/01/11 15:29:30;;;;;;;;;;;;;;;;;;5068142;28;19912;-63
2022/01/11 15:31:56;;;;;;;;;;;;;;;;;;5069761;28;20375;-64
2022/01/11 15:34:22;;;;;;;;;;;;;;;;;;5067102;28;19918;-63
2022/01/11 15:36:48;;;;;;;;;;;;;;;;;;5067715;28;19916;-64
2022/01/11 15:39:14;;;;;;;;;;;;;;;;;;5075110;28;19946;-63
2022/01/11 15:41:40;;;;;;;;;;;;;;;;;;5074448;28;19916;-63
2022/01/11 15:44:08;;;;;;;;;;;;;;;;;;5069221;28;20391;-63
2022/01/11 15:46:34;;;;;;;;;;;;;;;;;;5069347;28;20418;-64
2022/01/11 15:49:00;;;;;;;;;;;;;;;;;;5068565;28;19992;-64
2022/01/11 15:51:29;;;;;;;;;;;;;;;;;;5072356;28;19912;-65
2022/01/11 15:53:55;;;;;;;;;;;;;;;;;;5072067;28;19916;-64
2022/01/11 15:56:21;;;;;;;;;;;;;;;;;;5072227;28;19916;-64
2022/01/11 15:58:47;;;;;;;;;;;;;;;;;;5084386;28;19912;-63
2022/01/11 16:01:13;;;;;;;;;;;;;;;;;;5092313;28;19908;-63
2022/01/11 16:03:47;;;;;;;;;;;;;;;;;;5042409;28;9999673;-65
2022/01/11 16:06:13;;;;;;;;;;;;;;;;;;5089399;28;19912;-64
2022/01/11 16:08:39;;;;;;;;;;;;;;;;;;5088730;28;20402;-64
2022/01/11 16:11:05;;;;;;;;;;;;;;;;;;5088961;28;19958;-65
2022/01/11 16:13:31;;;;;;;;;;;;;;;;;;5088695;28;20353;-64
2022/01/11 16:16:00;;;;;;;;;;;;;;;;;;5090118;28;19915;-62
2022/01/11 16:18:26;;;;;;;;;;;;;;;;;;5090566;28;20290;-62
2022/01/11 16:20:51;;;;;;;;;;;;;;;;;;5092392;28;19916;-62
2022/01/11 16:23:17;;;;;;;;;;;;;;;;;;4737259;28;9999897;-63
2022/01/11 16:25:43;;;;;;;;;;;;;;;;;;5068949;28;20372;-64
2022/01/11 16:28:09;;;;;;;;;;;;;;;;;;5069060;28;19928;-64
2022/01/11 16:30:35;;;;;;;;;;;;;;;;;;5067602;28;19982;-61
2022/01/11 16:33:01;;;;;;;;;;;;;;;;;;5068538;28;20352;-62